sensor_id;sensor_type;location;lat;lon;timestamp;temperature;humidity
70867;HTU21D;58487;53.474;49.470;2024-02-28T00:01:18;-9.92;34.13
70867;HTU21D;58487;53.474;49.470;2024-02-28T00:03:44;-9.96;34.75
70867;HTU21D;58487;53.474;49.470;2024-02-28T00:06:10;-10.06;36.11
70867;HTU21D;58487;53.474;49.470;2024-02-28T00:08:36;-10.04;36.01
70867;HTU21D;58487;53.474;49.470;2024-02-28T00:11:02;-10.18;36.65
70867;HTU21D;58487;53.474;49.470;2024-02-28T00:13:28;-10.36;36.79
70867;HTU21D;58487;53.474;49.470;2024-02-28T00:15:54;-10.38;36.91
70867;HTU21D;58487;53.474;49.470;2024-02-28T00:18:20;-10.30;36.84
70867;HTU21D;58487;53.474;49.470;2024-02-28T00:20:46;-10.20;36.53
70867;HTU21D;58487;53.474;49.470;2024-02-28T00:23:13;-10.23;37.24
70867;HTU21D;58487;53.474;49.470;2024-02-28T00:25:39;-10.26;37.08
70867;HTU21D;58487;53.474;49.470;2024-02-28T00:28:05;-10.27;37.46
70867;HTU21D;58487;53.474;49.470;2024-02-28T00:30:31;-10.35;37.70
70867;HTU21D;58487;53.474;49.470;2024-02-28T00:32:59;-10.37;37.85
70867;HTU21D;58487;53.474;49.470;2024-02-28T00:35:25;-10.34;38.35
70867;HTU21D;58487;53.474;49.470;2024-02-28T00:37:51;-10.31;38.20
70867;HTU21D;58487;53.474;49.470;2024-02-28T00:40:17;-10.23;37.85
70867;HTU21D;58487;53.474;49.470;2024-02-28T00:42:43;-10.27;37.86
70867;HTU21D;58487;53.474;49.470;2024-02-28T00:45:10;-10.29;37.75
70867;HTU21D;58487;53.474;49.470;2024-02-28T00:47:36;-10.33;37.83
70867;HTU21D;58487;53.474;49.470;2024-02-28T00:50:04;-10.49;38.20
70867;HTU21D;58487;53.474;49.470;2024-02-28T00:52:30;-10.61;38.81
70867;HTU21D;58487;53.474;49.470;2024-02-28T00:54:57;-10.76;39.46
70867;HTU21D;58487;53.474;49.470;2024-02-28T00:57:24;-10.90;40.54
70867;HTU21D;58487;53.474;49.470;2024-02-28T00:59:50;-10.90;41.10
70867;HTU21D;58487;53.474;49.470;2024-02-28T01:02:16;-10.77;39.84
70867;HTU21D;58487;53.474;49.470;2024-02-28T01:04:42;-10.66;39.44
70867;HTU21D;58487;53.474;49.470;2024-02-28T01:07:08;-10.59;38.41
70867;HTU21D;58487;53.474;49.470;2024-02-28T01:09:34;-10.71;38.87
70867;HTU21D;58487;53.474;49.470;2024-02-28T01:12:01;-10.85;39.43
70867;HTU21D;58487;53.474;49.470;2024-02-28T01:14:27;-10.92;39.92
70867;HTU21D;58487;53.474;49.470;2024-02-28T01:16:53;-10.96;40.28
70867;HTU21D;58487;53.474;49.470;2024-02-28T01:19:19;-11.01;40.57
70867;HTU21D;58487;53.474;49.470;2024-02-28T01:21:48;-11.12;40.71
70867;HTU21D;58487;53.474;49.470;2024-02-28T01:24:14;-11.22;42.21
70867;HTU21D;58487;53.474;49.470;2024-02-28T01:26:40;-11.17;42.36
70867;HTU21D;58487;53.474;49.470;2024-02-28T01:29:07;-11.25;41.71
70867;HTU21D;58487;53.474;49.470;2024-02-28T01:31:33;-11.46;41.40
70867;HTU21D;58487;53.474;49.470;2024-02-28T01:33:59;-11.55;42.39
70867;HTU21D;58487;53.474;49.470;2024-02-28T01:36:25;-11.38;40.94
70867;HTU21D;58487;53.474;49.470;2024-02-28T01:38:52;-11.25;40.80
70867;HTU21D;58487;53.474;49.470;2024-02-28T01:41:18;-11.34;42.48
70867;HTU21D;58487;53.474;49.470;2024-02-28T01:43:44;-11.33;42.93
70867;HTU21D;58487;53.474;49.470;2024-02-28T01:46:26;-11.26;43.10
70867;HTU21D;58487;53.474;49.470;2024-02-28T01:48:56;-11.21;42.42
70867;HTU21D;58487;53.474;49.470;2024-02-28T01:51:26;-11.20;42.26
70867;HTU21D;58487;53.474;49.470;2024-02-28T01:53:56;-11.25;42.10
70867;HTU21D;58487;53.474;49.470;2024-02-28T01:56:23;-11.22;43.26
70867;HTU21D;58487;53.474;49.470;2024-02-28T01:58:51;-11.12;42.45
70867;HTU21D;58487;53.474;49.470;2024-02-28T02:01:18;-11.14;43.00
70867;HTU21D;58487;53.474;49.470;2024-02-28T02:03:44;-11.34;44.40
70867;HTU21D;58487;53.474;49.470;2024-02-28T02:06:10;-11.33;44.93
70867;HTU21D;58487;53.474;49.470;2024-02-28T02:08:37;-11.35;45.33
70867;HTU21D;58487;53.474;49.470;2024-02-28T02:11:05;-11.32;44.83
70867;HTU21D;58487;53.474;49.470;2024-02-28T02:13:32;-11.29;44.76
70867;HTU21D;58487;53.474;49.470;2024-02-28T02:15:58;-11.26;45.04
70867;HTU21D;58487;53.474;49.470;2024-02-28T02:18:25;-11.26;44.51
70867;HTU21D;58487;53.474;49.470;2024-02-28T02:20:54;-11.26;43.99
70867;HTU21D;58487;53.474;49.470;2024-02-28T02:23:24;-11.32;45.25
70867;HTU21D;58487;53.474;49.470;2024-02-28T02:25:50;-11.35;45.53
70867;HTU21D;58487;53.474;49.470;2024-02-28T02:28:16;-11.44;45.08
70867;HTU21D;58487;53.474;49.470;2024-02-28T02:30:42;-11.51;44.46
70867;HTU21D;58487;53.474;49.470;2024-02-28T02:33:08;-11.78;44.67
70867;HTU21D;58487;53.474;49.470;2024-02-28T02:35:34;-11.90;45.80
70867;HTU21D;58487;53.474;49.470;2024-02-28T02:38:00;-11.88;45.40
70867;HTU21D;58487;53.474;49.470;2024-02-28T02:40:26;-12.04;46.11
70867;HTU21D;58487;53.474;49.470;2024-02-28T02:42:52;-12.12;46.19
70867;HTU21D;58487;53.474;49.470;2024-02-28T02:45:18;-12.22;47.04
70867;HTU21D;58487;53.474;49.470;2024-02-28T02:47:44;-12.27;47.33
70867;HTU21D;58487;53.474;49.470;2024-02-28T02:50:13;-12.34;48.02
70867;HTU21D;58487;53.474;49.470;2024-02-28T02:52:39;-12.35;47.79
70867;HTU21D;58487;53.474;49.470;2024-02-28T02:55:06;-12.24;47.96
70867;HTU21D;58487;53.474;49.470;2024-02-28T02:57:33;-12.05;47.74
70867;HTU21D;58487;53.474;49.470;2024-02-28T02:59:59;-11.95;48.08
70867;HTU21D;58487;53.474;49.470;2024-02-28T03:02:27;-11.88;48.16
70867;HTU21D;58487;53.474;49.470;2024-02-28T03:04:53;-11.81;48.61
70867;HTU21D;58487;53.474;49.470;2024-02-28T03:07:19;-11.83;48.04
70867;HTU21D;58487;53.474;49.470;2024-02-28T03:09:45;-11.90;48.63
70867;HTU21D;58487;53.474;49.470;2024-02-28T03:12:11;-12.17;51.53
70867;HTU21D;58487;53.474;49.470;2024-02-28T03:14:37;-12.11;50.50
70867;HTU21D;58487;53.474;49.470;2024-02-28T03:17:03;-12.03;50.11
70867;HTU21D;58487;53.474;49.470;2024-02-28T03:19:30;-11.91;50.57
70867;HTU21D;58487;53.474;49.470;2024-02-28T03:21:56;-11.80;50.83
70867;HTU21D;58487;53.474;49.470;2024-02-28T03:24:22;-11.74;50.84
70867;HTU21D;58487;53.474;49.470;2024-02-28T03:26:48;-11.74;51.26
70867;HTU21D;58487;53.474;49.470;2024-02-28T03:29:14;-11.76;51.37
70867;HTU21D;58487;53.474;49.470;2024-02-28T03:31:40;-11.80;50.43
70867;HTU21D;58487;53.474;49.470;2024-02-28T03:34:06;-11.74;49.81
70867;HTU21D;58487;53.474;49.470;2024-02-28T03:36:32;-11.71;49.56
70867;HTU21D;58487;53.474;49.470;2024-02-28T03:38:58;-11.76;48.60
70867;HTU21D;58487;53.474;49.470;2024-02-28T03:41:24;-11.82;48.33
70867;HTU21D;58487;53.474;49.470;2024-02-28T03:43:50;-11.81;47.47
70867;HTU21D;58487;53.474;49.470;2024-02-28T03:46:16;-11.89;47.23
70867;HTU21D;58487;53.474;49.470;2024-02-28T03:48:45;-12.07;47.68
70867;HTU21D;58487;53.474;49.470;2024-02-28T03:51:11;-12.18;48.44
70867;HTU21D;58487;53.474;49.470;2024-02-28T03:53:37;-12.27;48.61
70867;HTU21D;58487;53.474;49.470;2024-02-28T03:56:03;-12.37;49.41
70867;HTU21D;58487;53.474;49.470;2024-02-28T03:58:29;-12.15;49.34
70867;HTU21D;58487;53.474;49.470;2024-02-28T04:00:55;-11.96;48.91
70867;HTU21D;58487;53.474;49.470;2024-02-28T04:03:21;-11.96;48.63
70867;HTU21D;58487;53.474;49.470;2024-02-28T04:05:47;-11.85;48.76
70867;HTU21D;58487;53.474;49.470;2024-02-28T04:08:13;-11.63;49.41
70867;HTU21D;58487;53.474;49.470;2024-02-28T04:10:39;-11.45;48.89
70867;HTU21D;58487;53.474;49.470;2024-02-28T04:13:05;-11.42;48.86
70867;HTU21D;58487;53.474;49.470;2024-02-28T04:15:32;-11.33;48.78
70867;HTU21D;58487;53.474;49.470;2024-02-28T04:17:58;-11.27;49.23
70867;HTU21D;58487;53.474;49.470;2024-02-28T04:20:24;-11.15;49.82
70867;HTU21D;58487;53.474;49.470;2024-02-28T04:22:50;-11.05;49.63
70867;HTU21D;58487;53.474;49.470;2024-02-28T04:25:16;-11.03;51.52
70867;HTU21D;58487;53.474;49.470;2024-02-28T04:27:43;-10.93;50.88
70867;HTU21D;58487;53.474;49.470;2024-02-28T04:30:09;-10.76;51.43
70867;HTU21D;58487;53.474;49.470;2024-02-28T04:32:36;-10.79;52.04
70867;HTU21D;58487;53.474;49.470;2024-02-28T04:35:02;-10.78;51.55
70867;HTU21D;58487;53.474;49.470;2024-02-28T04:37:29;-10.90;51.02
70867;HTU21D;58487;53.474;49.470;2024-02-28T04:39:55;-10.86;52.13
70867;HTU21D;58487;53.474;49.470;2024-02-28T04:42:21;-10.76;52.15
70867;HTU21D;58487;53.474;49.470;2024-02-28T04:44:47;-10.61;50.81
70867;HTU21D;58487;53.474;49.470;2024-02-28T04:47:13;-10.57;49.72
70867;HTU21D;58487;53.474;49.470;2024-02-28T04:49:40;-10.74;47.24
70867;HTU21D;58487;53.474;49.470;2024-02-28T04:52:06;-11.12;48.41
70867;HTU21D;58487;53.474;49.470;2024-02-28T04:54:32;-11.08;47.31
70867;HTU21D;58487;53.474;49.470;2024-02-28T04:56:59;-11.08;48.07
70867;HTU21D;58487;53.474;49.470;2024-02-28T04:59:26;-11.05;48.02
70867;HTU21D;58487;53.474;49.470;2024-02-28T05:01:52;-10.96;45.70
70867;HTU21D;58487;53.474;49.470;2024-02-28T05:04:18;-10.88;45.17
70867;HTU21D;58487;53.474;49.470;2024-02-28T05:06:45;-10.72;45.22
70867;HTU21D;58487;53.474;49.470;2024-02-28T05:09:11;-10.49;44.35
70867;HTU21D;58487;53.474;49.470;2024-02-28T05:11:37;-10.28;43.74
70867;HTU21D;58487;53.474;49.470;2024-02-28T05:14:02;-10.21;43.55
70867;HTU21D;58487;53.474;49.470;2024-02-28T05:16:29;-9.91;42.55
70867;HTU21D;58487;53.474;49.470;2024-02-28T05:18:55;-9.63;41.65
70867;HTU21D;58487;53.474;49.470;2024-02-28T05:21:22;-9.39;40.68
70867;HTU21D;58487;53.474;49.470;2024-02-28T05:23:48;-9.23;40.06
70867;HTU21D;58487;53.474;49.470;2024-02-28T05:26:14;-9.15;40.12
70867;HTU21D;58487;53.474;49.470;2024-02-28T05:28:41;-9.02;39.83
70867;HTU21D;58487;53.474;49.470;2024-02-28T05:31:26;-8.96;39.59
70867;HTU21D;58487;53.474;49.470;2024-02-28T05:33:57;-8.79;39.59
70867;HTU21D;58487;53.474;49.470;2024-02-28T05:36:24;-9.00;40.79
70867;HTU21D;58487;53.474;49.470;2024-02-28T05:38:51;-8.85;39.91
70867;HTU21D;58487;53.474;49.470;2024-02-28T05:41:17;-8.77;39.72
70867;HTU21D;58487;53.474;49.470;2024-02-28T05:43:44;-8.95;39.51
70867;HTU21D;58487;53.474;49.470;2024-02-28T05:46:10;-8.72;39.32
70867;HTU21D;58487;53.474;49.470;2024-02-28T05:48:36;-8.50;38.53
70867;HTU21D;58487;53.474;49.470;2024-02-28T05:51:02;-8.39;38.03
70867;HTU21D;58487;53.474;49.470;2024-02-28T05:53:29;-8.31;38.40
70867;HTU21D;58487;53.474;49.470;2024-02-28T05:55:58;-8.23;38.04
70867;HTU21D;58487;53.474;49.470;2024-02-28T05:58:24;-8.16;38.16
70867;HTU21D;58487;53.474;49.470;2024-02-28T06:00:51;-8.05;37.80
70867;HTU21D;58487;53.474;49.470;2024-02-28T06:03:17;-7.98;37.97
70867;HTU21D;58487;53.474;49.470;2024-02-28T06:05:43;-7.95;37.56
70867;HTU21D;58487;53.474;49.470;2024-02-28T06:08:10;-8.10;37.93
70867;HTU21D;58487;53.474;49.470;2024-02-28T06:10:36;-8.34;38.49
70867;HTU21D;58487;53.474;49.470;2024-02-28T06:13:03;-8.46;38.95
70867;HTU21D;58487;53.474;49.470;2024-02-28T06:15:29;-8.38;38.98
70867;HTU21D;58487;53.474;49.470;2024-02-28T06:17:57;-8.16;38.36
70867;HTU21D;58487;53.474;49.470;2024-02-28T06:20:26;-8.01;38.39
70867;HTU21D;58487;53.474;49.470;2024-02-28T06:22:52;-7.91;37.93
70867;HTU21D;58487;53.474;49.470;2024-02-28T06:25:18;-7.75;37.74
70867;HTU21D;58487;53.474;49.470;2024-02-28T06:27:45;-7.62;37.70
70867;HTU21D;58487;53.474;49.470;2024-02-28T06:30:12;-7.62;37.66
70867;HTU21D;58487;53.474;49.470;2024-02-28T06:32:38;-7.66;37.93
70867;HTU21D;58487;53.474;49.470;2024-02-28T06:35:06;-7.55;37.52
70867;HTU21D;58487;53.474;49.470;2024-02-28T06:37:33;-7.45;37.40
70867;HTU21D;58487;53.474;49.470;2024-02-28T06:39:59;-7.25;36.86
70867;HTU21D;58487;53.474;49.470;2024-02-28T06:42:26;-7.17;36.76
70867;HTU21D;58487;53.474;49.470;2024-02-28T06:44:52;-7.00;36.66
70867;HTU21D;58487;53.474;49.470;2024-02-28T06:47:18;-6.95;36.45
70867;HTU21D;58487;53.474;49.470;2024-02-28T06:49:45;-6.92;36.31
70867;HTU21D;58487;53.474;49.470;2024-02-28T06:52:11;-6.94;36.43
70867;HTU21D;58487;53.474;49.470;2024-02-28T06:54:38;-6.92;36.62
70867;HTU21D;58487;53.474;49.470;2024-02-28T06:57:04;-6.72;36.18
70867;HTU21D;58487;53.474;49.470;2024-02-28T06:59:30;-6.77;37.21
70867;HTU21D;58487;53.474;49.470;2024-02-28T07:01:57;-6.60;36.36
70867;HTU21D;58487;53.474;49.470;2024-02-28T07:04:23;-6.56;36.13
70867;HTU21D;58487;53.474;49.470;2024-02-28T07:06:49;-6.60;36.18
70867;HTU21D;58487;53.474;49.470;2024-02-28T07:09:15;-6.58;36.19
70867;HTU21D;58487;53.474;49.470;2024-02-28T07:11:41;-6.53;36.08
70867;HTU21D;58487;53.474;49.470;2024-02-28T07:14:07;-6.32;35.93
70867;HTU21D;58487;53.474;49.470;2024-02-28T07:16:33;-6.20;35.92
70867;HTU21D;58487;53.474;49.470;2024-02-28T07:19:00;-6.20;35.79
70867;HTU21D;58487;53.474;49.470;2024-02-28T07:21:27;-6.14;35.47
70867;HTU21D;58487;53.474;49.470;2024-02-28T07:23:53;-6.02;35.15
70867;HTU21D;58487;53.474;49.470;2024-02-28T07:26:20;-5.78;35.04
70867;HTU21D;58487;53.474;49.470;2024-02-28T07:28:46;-5.86;35.19
70867;HTU21D;58487;53.474;49.470;2024-02-28T07:31:16;-5.96;35.50
70867;HTU21D;58487;53.474;49.470;2024-02-28T07:33:42;-5.71;35.42
70867;HTU21D;58487;53.474;49.470;2024-02-28T07:36:08;-5.49;35.06
70867;HTU21D;58487;53.474;49.470;2024-02-28T07:38:36;-5.39;34.79
70867;HTU21D;58487;53.474;49.470;2024-02-28T07:41:02;-5.29;34.68
70867;HTU21D;58487;53.474;49.470;2024-02-28T07:43:28;-5.14;34.41
70867;HTU21D;58487;53.474;49.470;2024-02-28T07:45:58;-5.24;34.56
70867;HTU21D;58487;53.474;49.470;2024-02-28T07:48:25;-4.95;33.39
70867;HTU21D;58487;53.474;49.470;2024-02-28T07:50:51;-4.64;32.52
70867;HTU21D;58487;53.474;49.470;2024-02-28T07:53:17;-4.54;30.97
70867;HTU21D;58487;53.474;49.470;2024-02-28T07:55:43;-4.35;32.83
70867;HTU21D;58487;53.474;49.470;2024-02-28T07:58:09;-4.20;30.38
70867;HTU21D;58487;53.474;49.470;2024-02-28T08:00:35;-4.29;29.96
70867;HTU21D;58487;53.474;49.470;2024-02-28T08:03:02;-4.08;30.16
70867;HTU21D;58487;53.474;49.470;2024-02-28T08:05:28;-4.15;31.00
70867;HTU21D;58487;53.474;49.470;2024-02-28T08:07:54;-4.37;32.54
70867;HTU21D;58487;53.474;49.470;2024-02-28T08:10:20;-4.35;31.71
70867;HTU21D;58487;53.474;49.470;2024-02-28T08:12:46;-4.38;33.41
70867;HTU21D;58487;53.474;49.470;2024-02-28T08:15:12;-4.31;32.37
70867;HTU21D;58487;53.474;49.470;2024-02-28T08:17:38;-4.25;33.44
70867;HTU21D;58487;53.474;49.470;2024-02-28T08:20:05;-4.23;32.74
70867;HTU21D;58487;53.474;49.470;2024-02-28T08:22:31;-4.10;31.32
70867;HTU21D;58487;53.474;49.470;2024-02-28T08:24:57;-4.08;35.45
70867;HTU21D;58487;53.474;49.470;2024-02-28T08:27:23;-4.20;34.96
70867;HTU21D;58487;53.474;49.470;2024-02-28T08:29:50;-4.20;34.73
70867;HTU21D;58487;53.474;49.470;2024-02-28T08:32:20;-4.30;35.09
70867;HTU21D;58487;53.474;49.470;2024-02-28T08:34:46;-4.31;35.93
70867;HTU21D;58487;53.474;49.470;2024-02-28T08:37:13;-4.74;38.86
70867;HTU21D;58487;53.474;49.470;2024-02-28T08:39:39;-4.61;37.75
70867;HTU21D;58487;53.474;49.470;2024-02-28T08:42:06;-4.17;34.53
70867;HTU21D;58487;53.474;49.470;2024-02-28T08:44:32;-3.85;34.12
70867;HTU21D;58487;53.474;49.470;2024-02-28T08:46:58;-3.79;38.68
70867;HTU21D;58487;53.474;49.470;2024-02-28T08:49:24;-3.82;35.04
70867;HTU21D;58487;53.474;49.470;2024-02-28T08:51:50;-3.67;33.70
70867;HTU21D;58487;53.474;49.470;2024-02-28T08:54:16;-3.36;33.15
70867;HTU21D;58487;53.474;49.470;2024-02-28T08:56:42;-3.39;33.42
70867;HTU21D;58487;53.474;49.470;2024-02-28T08:59:08;-3.15;31.44
70867;HTU21D;58487;53.474;49.470;2024-02-28T09:01:35;-3.04;32.19
70867;HTU21D;58487;53.474;49.470;2024-02-28T09:04:01;-2.91;34.25
70867;HTU21D;58487;53.474;49.470;2024-02-28T09:06:27;-2.81;33.05
70867;HTU21D;58487;53.474;49.470;2024-02-28T09:08:53;-2.86;31.61
70867;HTU21D;58487;53.474;49.470;2024-02-28T09:11:19;-2.68;33.63
70867;HTU21D;58487;53.474;49.470;2024-02-28T09:13:45;-2.76;32.87
70867;HTU21D;58487;53.474;49.470;2024-02-28T09:16:11;-2.80;32.89
70867;HTU21D;58487;53.474;49.470;2024-02-28T09:18:37;-2.62;31.94
70867;HTU21D;58487;53.474;49.470;2024-02-28T09:21:04;-2.54;31.03
70867;HTU21D;58487;53.474;49.470;2024-02-28T09:23:30;-2.59;31.07
70867;HTU21D;58487;53.474;49.470;2024-02-28T09:25:56;-2.73;30.74
70867;HTU21D;58487;53.474;49.470;2024-02-28T09:28:23;-3.02;31.63
70867;HTU21D;58487;53.474;49.470;2024-02-28T09:30:49;-2.95;31.29
70867;HTU21D;58487;53.474;49.470;2024-02-28T09:33:16;-2.95;30.58
70867;HTU21D;58487;53.474;49.470;2024-02-28T09:35:45;-2.36;29.68
70867;HTU21D;58487;53.474;49.470;2024-02-28T09:38:11;-1.90;29.35
70867;HTU21D;58487;53.474;49.470;2024-02-28T09:40:37;-1.46;29.42
70867;HTU21D;58487;53.474;49.470;2024-02-28T09:43:04;-0.70;28.42
70867;HTU21D;58487;53.474;49.470;2024-02-28T09:45:31;-0.09;28.61
70867;HTU21D;58487;53.474;49.470;2024-02-28T09:48:01;0.40;27.32
70867;HTU21D;58487;53.474;49.470;2024-02-28T09:50:29;0.61;27.11
70867;HTU21D;58487;53.474;49.470;2024-02-28T09:52:55;0.64;26.46
70867;HTU21D;58487;53.474;49.470;2024-02-28T09:55:32;1.20;27.16
70867;HTU21D;58487;53.474;49.470;2024-02-28T09:57:59;1.23;26.48
70867;HTU21D;58487;53.474;49.470;2024-02-28T10:00:26;1.05;25.32
70867;HTU21D;58487;53.474;49.470;2024-02-28T10:02:53;1.08;25.39
70867;HTU21D;58487;53.474;49.470;2024-02-28T10:05:21;1.21;25.22
70867;HTU21D;58487;53.474;49.470;2024-02-28T10:07:52;1.17;24.65
70867;HTU21D;58487;53.474;49.470;2024-02-28T10:10:19;0.86;25.80
70867;HTU21D;58487;53.474;49.470;2024-02-28T10:12:45;0.81;26.26
70867;HTU21D;58487;53.474;49.470;2024-02-28T10:15:11;0.77;26.51
70867;HTU21D;58487;53.474;49.470;2024-02-28T10:17:37;0.68;27.07
70867;HTU21D;58487;53.474;49.470;2024-02-28T10:20:04;0.94;27.38
70867;HTU21D;58487;53.474;49.470;2024-02-28T10:22:36;1.05;26.78
70867;HTU21D;58487;53.474;49.470;2024-02-28T10:25:03;0.69;28.26
70867;HTU21D;58487;53.474;49.470;2024-02-28T10:27:36;0.62;31.71
70867;HTU21D;58487;53.474;49.470;2024-02-28T10:30:03;0.86;28.03
70867;HTU21D;58487;53.474;49.470;2024-02-28T10:32:33;0.80;27.52
70867;HTU21D;58487;53.474;49.470;2024-02-28T10:35:01;0.96;28.18
70867;HTU21D;58487;53.474;49.470;2024-02-28T10:37:32;1.26;27.87
70867;HTU21D;58487;53.474;49.470;2024-02-28T10:39:58;1.58;26.07
70867;HTU21D;58487;53.474;49.470;2024-02-28T10:42:30;1.94;25.67
70867;HTU21D;58487;53.474;49.470;2024-02-28T10:44:57;2.21;25.16
70867;HTU21D;58487;53.474;49.470;2024-02-28T10:47:25;2.32;24.38
70867;HTU21D;58487;53.474;49.470;2024-02-28T10:49:52;2.34;24.93
70867;HTU21D;58487;53.474;49.470;2024-02-28T10:52:21;2.06;26.45
70867;HTU21D;58487;53.474;49.470;2024-02-28T10:54:54;2.07;26.10
70867;HTU21D;58487;53.474;49.470;2024-02-28T10:57:21;2.39;24.26
70867;HTU21D;58487;53.474;49.470;2024-02-28T10:59:53;2.82;23.41
70867;HTU21D;58487;53.474;49.470;2024-02-28T11:02:20;3.02;23.21
70867;HTU21D;58487;53.474;49.470;2024-02-28T11:04:47;3.33;22.59
70867;HTU21D;58487;53.474;49.470;2024-02-28T11:07:19;3.47;21.00
70867;HTU21D;58487;53.474;49.470;2024-02-28T11:09:46;3.41;22.74
70867;HTU21D;58487;53.474;49.470;2024-02-28T11:12:27;3.15;20.87
70867;HTU21D;58487;53.474;49.470;2024-02-28T11:15:01;2.97;23.14
70867;HTU21D;58487;53.474;49.470;2024-02-28T11:17:34;2.32;23.08
70867;HTU21D;58487;53.474;49.470;2024-02-28T11:20:11;1.93;23.52
70867;HTU21D;58487;53.474;49.470;2024-02-28T11:22:39;1.38;25.53
70867;HTU21D;58487;53.474;49.470;2024-02-28T11:25:06;1.52;24.89
70867;HTU21D;58487;53.474;49.470;2024-02-28T11:27:32;1.61;26.59
70867;HTU21D;58487;53.474;49.470;2024-02-28T11:29:58;1.41;26.53
70867;HTU21D;58487;53.474;49.470;2024-02-28T11:32:29;1.62;25.83
70867;HTU21D;58487;53.474;49.470;2024-02-28T11:35:00;1.90;24.44
70867;HTU21D;58487;53.474;49.470;2024-02-28T11:37:28;2.64;23.87
70867;HTU21D;58487;53.474;49.470;2024-02-28T11:39:54;2.72;24.34
70867;HTU21D;58487;53.474;49.470;2024-02-28T11:42:20;2.66;24.53
70867;HTU21D;58487;53.474;49.470;2024-02-28T11:44:55;2.72;24.06
70867;HTU21D;58487;53.474;49.470;2024-02-28T11:47:23;2.79;24.94
70867;HTU21D;58487;53.474;49.470;2024-02-28T11:49:59;3.24;24.33
70867;HTU21D;58487;53.474;49.470;2024-02-28T11:52:30;3.35;24.40
70867;HTU21D;58487;53.474;49.470;2024-02-28T11:55:04;3.53;24.17
70867;HTU21D;58487;53.474;49.470;2024-02-28T11:57:31;2.71;24.97
70867;HTU21D;58487;53.474;49.470;2024-02-28T12:00:08;2.01;26.67
70867;HTU21D;58487;53.474;49.470;2024-02-28T12:02:40;1.55;26.71
70867;HTU21D;58487;53.474;49.470;2024-02-28T12:05:10;1.55;26.86
70867;HTU21D;58487;53.474;49.470;2024-02-28T12:07:39;1.82;26.67
70867;HTU21D;58487;53.474;49.470;2024-02-28T12:10:06;2.41;25.38
70867;HTU21D;58487;53.474;49.470;2024-02-28T12:12:32;2.87;25.02
70867;HTU21D;58487;53.474;49.470;2024-02-28T12:14:59;3.06;24.47
70867;HTU21D;58487;53.474;49.470;2024-02-28T12:17:25;2.71;25.79
70867;HTU21D;58487;53.474;49.470;2024-02-28T12:19:52;2.67;25.61
70867;HTU21D;58487;53.474;49.470;2024-02-28T12:22:19;2.58;25.02
70867;HTU21D;58487;53.474;49.470;2024-02-28T12:24:45;3.12;24.98
70867;HTU21D;58487;53.474;49.470;2024-02-28T12:27:11;3.16;24.29
70867;HTU21D;58487;53.474;49.470;2024-02-28T12:29:37;2.44;24.57
70867;HTU21D;58487;53.474;49.470;2024-02-28T12:32:03;2.02;25.37
70867;HTU21D;58487;53.474;49.470;2024-02-28T12:34:29;1.73;25.46
70867;HTU21D;58487;53.474;49.470;2024-02-28T12:36:55;2.36;23.94
70867;HTU21D;58487;53.474;49.470;2024-02-28T12:39:21;1.75;24.80
70867;HTU21D;58487;53.474;49.470;2024-02-28T12:41:48;2.32;24.62
70867;HTU21D;58487;53.474;49.470;2024-02-28T12:44:14;2.27;23.43
70867;HTU21D;58487;53.474;49.470;2024-02-28T12:46:41;2.72;22.81
70867;HTU21D;58487;53.474;49.470;2024-02-28T12:49:07;2.44;22.60
70867;HTU21D;58487;53.474;49.470;2024-02-28T12:51:37;2.52;22.22
70867;HTU21D;58487;53.474;49.470;2024-02-28T12:54:04;1.92;23.42
70867;HTU21D;58487;53.474;49.470;2024-02-28T12:56:30;1.64;24.01
70867;HTU21D;58487;53.474;49.470;2024-02-28T12:58:56;2.02;24.97
70867;HTU21D;58487;53.474;49.470;2024-02-28T13:01:22;1.57;24.96
70867;HTU21D;58487;53.474;49.470;2024-02-28T13:03:48;1.22;25.51
70867;HTU21D;58487;53.474;49.470;2024-02-28T13:06:17;1.37;25.30
70867;HTU21D;58487;53.474;49.470;2024-02-28T13:08:43;0.87;24.73
70867;HTU21D;58487;53.474;49.470;2024-02-28T13:11:10;-0.19;26.73
70867;HTU21D;58487;53.474;49.470;2024-02-28T13:13:36;-0.26;26.10
70867;HTU21D;58487;53.474;49.470;2024-02-28T13:16:02;-0.42;27.25
70867;HTU21D;58487;53.474;49.470;2024-02-28T13:18:28;-0.84;27.26
70867;HTU21D;58487;53.474;49.470;2024-02-28T13:20:54;-1.10;28.58
70867;HTU21D;58487;53.474;49.470;2024-02-28T13:23:20;-1.17;28.18
70867;HTU21D;58487;53.474;49.470;2024-02-28T13:25:47;-1.27;29.55
70867;HTU21D;58487;53.474;49.470;2024-02-28T13:28:13;-1.52;29.61
70867;HTU21D;58487;53.474;49.470;2024-02-28T13:30:39;-1.03;28.85
70867;HTU21D;58487;53.474;49.470;2024-02-28T13:33:05;-1.36;29.28
70867;HTU21D;58487;53.474;49.470;2024-02-28T13:35:32;-2.09;30.57
70867;HTU21D;58487;53.474;49.470;2024-02-28T13:37:58;-1.87;30.88
70867;HTU21D;58487;53.474;49.470;2024-02-28T13:40:26;-1.45;30.20
70867;HTU21D;58487;53.474;49.470;2024-02-28T13:42:53;-1.49;30.16
70867;HTU21D;58487;53.474;49.470;2024-02-28T13:45:19;-0.42;28.71
70867;HTU21D;58487;53.474;49.470;2024-02-28T13:47:45;-0.00;28.47
70867;HTU21D;58487;53.474;49.470;2024-02-28T13:50:11;-0.90;27.63
70867;HTU21D;58487;53.474;49.470;2024-02-28T13:52:37;-1.90;30.67
70867;HTU21D;58487;53.474;49.470;2024-02-28T13:55:04;-2.26;31.61
70867;HTU21D;58487;53.474;49.470;2024-02-28T13:57:30;-2.43;32.05
70867;HTU21D;58487;53.474;49.470;2024-02-28T13:59:56;-3.09;31.70
70867;HTU21D;58487;53.474;49.470;2024-02-28T14:02:24;-3.64;33.00
70867;HTU21D;58487;53.474;49.470;2024-02-28T14:04:53;-3.50;31.78
70867;HTU21D;58487;53.474;49.470;2024-02-28T14:07:20;-3.85;33.57
70867;HTU21D;58487;53.474;49.470;2024-02-28T14:09:46;-4.37;35.37
70867;HTU21D;58487;53.474;49.470;2024-02-28T14:12:12;-4.80;36.31
70867;HTU21D;58487;53.474;49.470;2024-02-28T14:14:38;-4.81;36.86
70867;HTU21D;58487;53.474;49.470;2024-02-28T14:17:07;-4.54;36.63
70867;HTU21D;58487;53.474;49.470;2024-02-28T14:19:33;-4.42;34.76
70867;HTU21D;58487;53.474;49.470;2024-02-28T14:22:01;-4.67;35.86
70867;HTU21D;58487;53.474;49.470;2024-02-28T14:24:27;-5.07;37.43
70867;HTU21D;58487;53.474;49.470;2024-02-28T14:26:53;-5.35;38.27
70867;HTU21D;58487;53.474;49.470;2024-02-28T14:29:20;-5.33;37.70
70867;HTU21D;58487;53.474;49.470;2024-02-28T14:31:46;-5.39;37.01
70867;HTU21D;58487;53.474;49.470;2024-02-28T14:34:12;-5.29;36.33
70867;HTU21D;58487;53.474;49.470;2024-02-28T14:36:38;-5.69;38.78
70867;HTU21D;58487;53.474;49.470;2024-02-28T14:39:04;-5.87;40.10
70867;HTU21D;58487;53.474;49.470;2024-02-28T14:41:44;-6.30;41.04
70867;HTU21D;58487;53.474;49.470;2024-02-28T14:44:11;-6.41;40.79
70867;HTU21D;58487;53.474;49.470;2024-02-28T14:46:43;-6.74;41.83
70867;HTU21D;58487;53.474;49.470;2024-02-28T14:49:10;-7.06;43.91
70867;HTU21D;58487;53.474;49.470;2024-02-28T14:51:36;-6.97;43.90
70867;HTU21D;58487;53.474;49.470;2024-02-28T14:54:02;-6.78;42.81
70867;HTU21D;58487;53.474;49.470;2024-02-28T14:56:28;-6.52;41.55
70867;HTU21D;58487;53.474;49.470;2024-02-28T14:58:58;-6.35;39.01